sensor_id;sensor_type;location;lat;lon;timestamp;P1;durP1;ratioP1;P2;durP2;ratioP2
10333;SDS011;5212;47.892;16.406;2023-11-21T00:01:56;2.57;;;2.07;;
10333;SDS011;5212;47.892;16.406;2023-11-21T00:04:23;3.33;;;2.00;;
10333;SDS011;5212;47.892;16.406;2023-11-21T00:06:49;3.00;;;2.10;;
10333;SDS011;5212;47.892;16.406;2023-11-21T00:09:16;4.70;;;2.67;;
10333;SDS011;5212;47.892;16.406;2023-11-21T00:11:42;4.83;;;2.20;;
10333;SDS011;5212;47.892;16.406;2023-11-21T00:14:09;4.83;;;2.83;;
10333;SDS011;5212;47.892;16.406;2023-11-21T00:16:36;2.40;;;1.93;;
10333;SDS011;5212;47.892;16.406;2023-11-21T00:19:02;4.90;;;1.73;;
10333;SDS011;5212;47.892;16.406;2023-11-21T00:21:29;4.50;;;2.70;;
10333;SDS011;5212;47.892;16.406;2023-11-21T00:23:55;4.33;;;2.43;;
10333;SDS011;5212;47.892;16.406;2023-11-21T00:26:21;7.60;;;4.17;;
10333;SDS011;5212;47.892;16.406;2023-11-21T00:28:47;16.73;;;7.27;;
10333;SDS011;5212;47.892;16.406;2023-11-21T00:31:13;12.00;;;6.50;;
10333;SDS011;5212;47.892;16.406;2023-11-21T00:33:39;12.10;;;5.37;;
10333;SDS011;5212;47.892;16.406;2023-11-21T00:36:05;12.80;;;6.10;;
10333;SDS011;5212;47.892;16.406;2023-11-21T00:38:35;10.43;;;5.00;;
10333;SDS011;5212;47.892;16.406;2023-11-21T00:41:01;7.37;;;4.23;;
10333;SDS011;5212;47.892;16.406;2023-11-21T00:43:28;7.93;;;4.50;;
10333;SDS011;5212;47.892;16.406;2023-11-21T00:45:54;6.60;;;3.70;;
10333;SDS011;5212;47.892;16.406;2023-11-21T00:48:20;8.40;;;3.87;;
10333;SDS011;5212;47.892;16.406;2023-11-21T00:50:46;8.40;;;3.80;;
10333;SDS011;5212;47.892;16.406;2023-11-21T00:53:12;4.00;;;2.50;;
10333;SDS011;5212;47.892;16.406;2023-11-21T00:55:38;6.17;;;3.50;;
10333;SDS011;5212;47.892;16.406;2023-11-21T00:58:05;5.70;;;3.20;;
10333;SDS011;5212;47.892;16.406;2023-11-21T01:00:32;4.77;;;2.87;;
10333;SDS011;5212;47.892;16.406;2023-11-21T01:02:58;4.50;;;2.30;;
10333;SDS011;5212;47.892;16.406;2023-11-21T01:05:24;4.70;;;2.63;;
10333;SDS011;5212;47.892;16.406;2023-11-21T01:07:50;7.13;;;3.27;;
10333;SDS011;5212;47.892;16.406;2023-11-21T01:10:16;3.17;;;2.27;;
10333;SDS011;5212;47.892;16.406;2023-11-21T01:12:43;3.73;;;2.43;;
10333;SDS011;5212;47.892;16.406;2023-11-21T01:15:09;2.77;;;2.07;;
10333;SDS011;5212;47.892;16.406;2023-11-21T01:17:37;2.23;;;1.60;;
10333;SDS011;5212;47.892;16.406;2023-11-21T01:20:03;5.40;;;2.27;;
10333;SDS011;5212;47.892;16.406;2023-11-21T01:22:35;4.40;;;2.30;;
10333;SDS011;5212;47.892;16.406;2023-11-21T01:25:01;3.50;;;2.00;;
10333;SDS011;5212;47.892;16.406;2023-11-21T01:27:29;3.00;;;1.60;;
10333;SDS011;5212;47.892;16.406;2023-11-21T01:29:56;3.33;;;1.80;;
10333;SDS011;5212;47.892;16.406;2023-11-21T01:32:22;2.73;;;1.70;;
10333;SDS011;5212;47.892;16.406;2023-11-21T01:34:50;2.67;;;1.53;;
10333;SDS011;5212;47.892;16.406;2023-11-21T01:37:16;3.40;;;1.80;;
10333;SDS011;5212;47.892;16.406;2023-11-21T01:39:42;3.63;;;1.87;;
10333;SDS011;5212;47.892;16.406;2023-11-21T01:42:09;3.40;;;1.87;;
10333;SDS011;5212;47.892;16.406;2023-11-21T01:44:36;2.73;;;1.67;;
10333;SDS011;5212;47.892;16.406;2023-11-21T01:47:03;3.23;;;2.00;;
10333;SDS011;5212;47.892;16.406;2023-11-21T01:49:30;2.77;;;1.67;;
10333;SDS011;5212;47.892;16.406;2023-11-21T01:51:57;4.03;;;1.63;;
10333;SDS011;5212;47.892;16.406;2023-11-21T01:54:23;2.93;;;1.80;;
10333;SDS011;5212;47.892;16.406;2023-11-21T01:56:49;3.17;;;1.90;;
10333;SDS011;5212;47.892;16.406;2023-11-21T01:59:17;3.33;;;1.83;;
10333;SDS011;5212;47.892;16.406;2023-11-21T02:01:45;4.07;;;2.40;;
10333;SDS011;5212;47.892;16.406;2023-11-21T02:04:12;5.33;;;2.10;;
10333;SDS011;5212;47.892;16.406;2023-11-21T02:06:38;3.60;;;2.27;;
10333;SDS011;5212;47.892;16.406;2023-11-21T02:09:04;3.77;;;2.50;;
10333;SDS011;5212;47.892;16.406;2023-11-21T02:11:31;6.20;;;2.73;;
10333;SDS011;5212;47.892;16.406;2023-11-21T02:13:59;3.77;;;2.27;;
10333;SDS011;5212;47.892;16.406;2023-11-21T02:16:26;3.13;;;2.33;;
10333;SDS011;5212;47.892;16.406;2023-11-21T02:18:52;4.77;;;2.60;;
10333;SDS011;5212;47.892;16.406;2023-11-21T02:21:19;6.27;;;2.63;;
10333;SDS011;5212;47.892;16.406;2023-11-21T02:23:45;4.93;;;2.57;;
10333;SDS011;5212;47.892;16.406;2023-11-21T02:26:12;4.93;;;2.80;;
10333;SDS011;5212;47.892;16.406;2023-11-21T02:28:38;3.87;;;2.37;;
10333;SDS011;5212;47.892;16.406;2023-11-21T02:31:04;4.50;;;2.20;;
10333;SDS011;5212;47.892;16.406;2023-11-21T02:33:30;7.87;;;4.10;;
10333;SDS011;5212;47.892;16.406;2023-11-21T02:35:58;9.33;;;4.97;;
10333;SDS011;5212;47.892;16.406;2023-11-21T02:38:24;4.97;;;3.30;;
10333;SDS011;5212;47.892;16.406;2023-11-21T02:40:51;7.73;;;4.00;;
10333;SDS011;5212;47.892;16.406;2023-11-21T02:43:18;10.57;;;4.63;;
10333;SDS011;5212;47.892;16.406;2023-11-21T02:45:44;6.53;;;3.63;;
10333;SDS011;5212;47.892;16.406;2023-11-21T02:48:10;6.00;;;3.63;;
10333;SDS011;5212;47.892;16.406;2023-11-21T02:50:36;5.03;;;2.83;;
10333;SDS011;5212;47.892;16.406;2023-11-21T02:53:02;4.87;;;2.73;;
10333;SDS011;5212;47.892;16.406;2023-11-21T02:55:30;4.23;;;2.30;;
10333;SDS011;5212;47.892;16.406;2023-11-21T02:58:00;3.17;;;2.20;;
10333;SDS011;5212;47.892;16.406;2023-11-21T03:00:26;6.40;;;1.90;;
10333;SDS011;5212;47.892;16.406;2023-11-21T03:02:52;3.80;;;2.10;;
10333;SDS011;5212;47.892;16.406;2023-11-21T03:05:20;4.03;;;1.97;;
10333;SDS011;5212;47.892;16.406;2023-11-21T03:07:46;2.20;;;1.20;;
10333;SDS011;5212;47.892;16.406;2023-11-21T03:10:13;2.17;;;1.30;;
10333;SDS011;5212;47.892;16.406;2023-11-21T03:12:39;2.07;;;1.40;;
10333;SDS011;5212;47.892;16.406;2023-11-21T03:15:06;1.87;;;1.40;;
10333;SDS011;5212;47.892;16.406;2023-11-21T03:17:33;5.60;;;1.43;;
10333;SDS011;5212;47.892;16.406;2023-11-21T03:19:59;2.93;;;1.30;;
10333;SDS011;5212;47.892;16.406;2023-11-21T03:22:25;1.77;;;1.20;;
10333;SDS011;5212;47.892;16.406;2023-11-21T03:24:51;1.80;;;1.00;;
10333;SDS011;5212;47.892;16.406;2023-11-21T03:27:19;1.70;;;1.30;;
10333;SDS011;5212;47.892;16.406;2023-11-21T03:29:45;2.77;;;1.37;;
10333;SDS011;5212;47.892;16.406;2023-11-21T03:32:12;1.47;;;1.20;;
10333;SDS011;5212;47.892;16.406;2023-11-21T03:34:52;1.17;;;1.07;;
10333;SDS011;5212;47.892;16.406;2023-11-21T03:37:19;4.63;;;1.53;;
10333;SDS011;5212;47.892;16.406;2023-11-21T03:39:46;1.80;;;1.23;;
10333;SDS011;5212;47.892;16.406;2023-11-21T03:42:12;1.20;;;1.10;;
10333;SDS011;5212;47.892;16.406;2023-11-21T03:44:38;1.40;;;1.30;;
10333;SDS011;5212;47.892;16.406;2023-11-21T03:47:04;1.70;;;1.27;;
10333;SDS011;5212;47.892;16.406;2023-11-21T03:49:31;2.50;;;1.50;;
10333;SDS011;5212;47.892;16.406;2023-11-21T03:51:57;1.30;;;1.10;;
10333;SDS011;5212;47.892;16.406;2023-11-21T03:54:23;1.80;;;1.33;;
10333;SDS011;5212;47.892;16.406;2023-11-21T03:56:49;1.40;;;1.30;;
10333;SDS011;5212;47.892;16.406;2023-11-21T03:59:15;9.27;;;4.20;;
10333;SDS011;5212;47.892;16.406;2023-11-21T04:01:41;6.50;;;3.57;;
10333;SDS011;5212;47.892;16.406;2023-11-21T04:04:07;5.67;;;3.60;;
10333;SDS011;5212;47.892;16.406;2023-11-21T04:06:33;6.03;;;3.60;;
10333;SDS011;5212;47.892;16.406;2023-11-21T04:09:01;5.30;;;3.10;;
10333;SDS011;5212;47.892;16.406;2023-11-21T04:11:29;7.33;;;3.40;;
10333;SDS011;5212;47.892;16.406;2023-11-21T04:13:55;6.97;;;3.63;;
10333;SDS011;5212;47.892;16.406;2023-11-21T04:16:21;8.60;;;4.57;;
10333;SDS011;5212;47.892;16.406;2023-11-21T04:18:47;6.07;;;3.47;;
10333;SDS011;5212;47.892;16.406;2023-11-21T04:21:13;7.00;;;4.10;;
10333;SDS011;5212;47.892;16.406;2023-11-21T04:23:40;9.70;;;3.33;;
10333;SDS011;5212;47.892;16.406;2023-11-21T04:26:06;7.47;;;3.47;;
10333;SDS011;5212;47.892;16.406;2023-11-21T04:28:32;4.73;;;3.00;;
10333;SDS011;5212;47.892;16.406;2023-11-21T04:30:58;10.87;;;3.00;;
10333;SDS011;5212;47.892;16.406;2023-11-21T04:33:24;10.63;;;2.63;;
10333;SDS011;5212;47.892;16.406;2023-11-21T04:35:50;5.47;;;2.20;;
10333;SDS011;5212;47.892;16.406;2023-11-21T04:38:16;3.37;;;1.97;;
10333;SDS011;5212;47.892;16.406;2023-11-21T04:40:44;3.17;;;1.87;;
10333;SDS011;5212;47.892;16.406;2023-11-21T04:43:11;2.37;;;1.80;;
10333;SDS011;5212;47.892;16.406;2023-11-21T04:45:37;3.47;;;1.73;;
10333;SDS011;5212;47.892;16.406;2023-11-21T04:48:03;4.93;;;1.90;;
10333;SDS011;5212;47.892;16.406;2023-11-21T04:50:30;4.53;;;1.40;;
10333;SDS011;5212;47.892;16.406;2023-11-21T04:52:56;3.90;;;1.40;;
10333;SDS011;5212;47.892;16.406;2023-11-21T04:55:22;1.63;;;1.17;;
10333;SDS011;5212;47.892;16.406;2023-11-21T04:57:49;4.27;;;1.33;;
10333;SDS011;5212;47.892;16.406;2023-11-21T05:00:15;2.03;;;1.13;;
10333;SDS011;5212;47.892;16.406;2023-11-21T05:02:42;2.03;;;1.30;;
10333;SDS011;5212;47.892;16.406;2023-11-21T05:05:09;2.27;;;1.50;;
10333;SDS011;5212;47.892;16.406;2023-11-21T05:07:35;3.87;;;1.33;;
10333;SDS011;5212;47.892;16.406;2023-11-21T05:10:01;3.70;;;1.00;;
10333;SDS011;5212;47.892;16.406;2023-11-21T05:12:30;1.97;;;1.30;;
10333;SDS011;5212;47.892;16.406;2023-11-21T05:14:59;1.87;;;1.10;;
10333;SDS011;5212;47.892;16.406;2023-11-21T05:17:25;1.47;;;1.00;;
10333;SDS011;5212;47.892;16.406;2023-11-21T05:19:51;1.50;;;1.03;;
10333;SDS011;5212;47.892;16.406;2023-11-21T05:22:17;4.43;;;1.80;;
10333;SDS011;5212;47.892;16.406;2023-11-21T05:24:44;5.13;;;1.47;;
10333;SDS011;5212;47.892;16.406;2023-11-21T05:27:10;2.47;;;1.27;;
10333;SDS011;5212;47.892;16.406;2023-11-21T05:29:37;1.80;;;1.30;;
10333;SDS011;5212;47.892;16.406;2023-11-21T05:32:04;2.17;;;1.10;;
10333;SDS011;5212;47.892;16.406;2023-11-21T05:34:31;4.70;;;1.60;;
10333;SDS011;5212;47.892;16.406;2023-11-21T05:36:57;3.57;;;1.30;;
10333;SDS011;5212;47.892;16.406;2023-11-21T05:39:24;2.43;;;1.40;;
10333;SDS011;5212;47.892;16.406;2023-11-21T05:41:50;2.93;;;1.60;;
10333;SDS011;5212;47.892;16.406;2023-11-21T05:44:16;3.47;;;1.07;;
10333;SDS011;5212;47.892;16.406;2023-11-21T05:46:42;1.77;;;1.13;;
10333;SDS011;5212;47.892;16.406;2023-11-21T05:49:09;1.70;;;1.30;;
10333;SDS011;5212;47.892;16.406;2023-11-21T05:51:35;1.70;;;1.10;;
10333;SDS011;5212;47.892;16.406;2023-11-21T05:54:01;2.27;;;1.23;;
10333;SDS011;5212;47.892;16.406;2023-11-21T05:56:28;0.90;;;0.80;;
10333;SDS011;5212;47.892;16.406;2023-11-21T05:58:54;1.83;;;1.10;;
10333;SDS011;5212;47.892;16.406;2023-11-21T06:01:20;1.27;;;1.00;;
10333;SDS011;5212;47.892;16.406;2023-11-21T06:03:46;2.40;;;1.13;;
10333;SDS011;5212;47.892;16.406;2023-11-21T06:06:12;4.43;;;1.10;;
10333;SDS011;5212;47.892;16.406;2023-11-21T06:08:38;2.40;;;1.87;;
10333;SDS011;5212;47.892;16.406;2023-11-21T06:11:04;3.33;;;2.33;;
10333;SDS011;5212;47.892;16.406;2023-11-21T06:13:30;2.73;;;1.60;;
10333;SDS011;5212;47.892;16.406;2023-11-21T06:15:56;2.87;;;1.57;;
10333;SDS011;5212;47.892;16.406;2023-11-21T06:18:22;4.17;;;1.50;;
10333;SDS011;5212;47.892;16.406;2023-11-21T06:20:49;3.33;;;1.50;;
10333;SDS011;5212;47.892;16.406;2023-11-21T06:23:16;4.30;;;2.77;;
10333;SDS011;5212;47.892;16.406;2023-11-21T06:25:42;11.43;;;5.30;;
10333;SDS011;5212;47.892;16.406;2023-11-21T06:28:08;16.50;;;9.80;;
10333;SDS011;5212;47.892;16.406;2023-11-21T06:30:34;29.63;;;15.93;;
10333;SDS011;5212;47.892;16.406;2023-11-21T06:33:00;23.57;;;10.97;;
10333;SDS011;5212;47.892;16.406;2023-11-21T06:35:26;14.93;;;7.40;;
10333;SDS011;5212;47.892;16.406;2023-11-21T06:37:55;8.07;;;3.93;;
10333;SDS011;5212;47.892;16.406;2023-11-21T06:40:22;7.57;;;3.67;;
10333;SDS011;5212;47.892;16.406;2023-11-21T06:42:48;6.57;;;3.93;;
10333;SDS011;5212;47.892;16.406;2023-11-21T06:45:15;6.87;;;4.27;;
10333;SDS011;5212;47.892;16.406;2023-11-21T06:47:41;5.37;;;3.40;;
10333;SDS011;5212;47.892;16.406;2023-11-21T06:50:07;5.57;;;3.33;;
10333;SDS011;5212;47.892;16.406;2023-11-21T06:52:34;6.13;;;2.90;;
10333;SDS011;5212;47.892;16.406;2023-11-21T06:55:00;3.67;;;2.30;;
10333;SDS011;5212;47.892;16.406;2023-11-21T06:57:27;5.13;;;2.67;;
10333;SDS011;5212;47.892;16.406;2023-11-21T06:59:53;2.47;;;2.00;;
10333;SDS011;5212;47.892;16.406;2023-11-21T07:02:19;2.53;;;1.70;;
10333;SDS011;5212;47.892;16.406;2023-11-21T07:04:45;1.73;;;1.50;;
10333;SDS011;5212;47.892;16.406;2023-11-21T07:07:11;3.23;;;2.07;;
10333;SDS011;5212;47.892;16.406;2023-11-21T07:09:37;10.00;;;5.07;;
10333;SDS011;5212;47.892;16.406;2023-11-21T07:12:04;14.97;;;7.40;;
10333;SDS011;5212;47.892;16.406;2023-11-21T07:14:33;11.73;;;5.07;;
10333;SDS011;5212;47.892;16.406;2023-11-21T07:16:59;6.47;;;3.77;;
10333;SDS011;5212;47.892;16.406;2023-11-21T07:19:25;6.10;;;2.73;;
10333;SDS011;5212;47.892;16.406;2023-11-21T07:21:51;5.63;;;3.00;;
10333;SDS011;5212;47.892;16.406;2023-11-21T07:24:17;3.67;;;2.40;;
10333;SDS011;5212;47.892;16.406;2023-11-21T07:26:43;2.77;;;2.13;;
10333;SDS011;5212;47.892;16.406;2023-11-21T07:29:09;3.97;;;2.07;;
10333;SDS011;5212;47.892;16.406;2023-11-21T07:31:37;4.07;;;2.20;;
10333;SDS011;5212;47.892;16.406;2023-11-21T07:34:03;3.70;;;1.70;;
10333;SDS011;5212;47.892;16.406;2023-11-21T07:36:29;3.40;;;2.03;;
10333;SDS011;5212;47.892;16.406;2023-11-21T07:38:55;15.80;;;7.90;;
10333;SDS011;5212;47.892;16.406;2023-11-21T07:41:21;16.83;;;7.03;;
10333;SDS011;5212;47.892;16.406;2023-11-21T07:43:47;10.70;;;4.27;;
10333;SDS011;5212;47.892;16.406;2023-11-21T07:46:13;11.60;;;4.47;;
10333;SDS011;5212;47.892;16.406;2023-11-21T07:48:40;7.77;;;3.80;;
10333;SDS011;5212;47.892;16.406;2023-11-21T07:51:07;11.10;;;4.57;;
10333;SDS011;5212;47.892;16.406;2023-11-21T07:53:34;8.23;;;4.70;;
10333;SDS011;5212;47.892;16.406;2023-11-21T07:56:02;9.53;;;3.83;;
10333;SDS011;5212;47.892;16.406;2023-11-21T07:58:29;11.77;;;4.87;;
10333;SDS011;5212;47.892;16.406;2023-11-21T08:00:56;7.77;;;3.70;;
10333;SDS011;5212;47.892;16.406;2023-11-21T08:03:22;9.33;;;4.73;;
10333;SDS011;5212;47.892;16.406;2023-11-21T08:05:48;10.80;;;4.67;;
10333;SDS011;5212;47.892;16.406;2023-11-21T08:08:14;22.97;;;11.87;;
10333;SDS011;5212;47.892;16.406;2023-11-21T08:10:43;17.80;;;9.17;;
10333;SDS011;5212;47.892;16.406;2023-11-21T08:13:11;23.40;;;10.93;;
10333;SDS011;5212;47.892;16.406;2023-11-21T08:15:39;31.97;;;17.40;;
10333;SDS011;5212;47.892;16.406;2023-11-21T08:18:06;10.13;;;5.60;;
10333;SDS011;5212;47.892;16.406;2023-11-21T08:20:32;11.73;;;4.20;;
10333;SDS011;5212;47.892;16.406;2023-11-21T08:23:02;17.50;;;6.43;;
10333;SDS011;5212;47.892;16.406;2023-11-21T08:25:30;17.90;;;9.90;;
10333;SDS011;5212;47.892;16.406;2023-11-21T08:27:57;25.20;;;10.93;;
10333;SDS011;5212;47.892;16.406;2023-11-21T08:30:23;27.47;;;12.27;;
10333;SDS011;5212;47.892;16.406;2023-11-21T08:32:49;17.73;;;8.80;;
10333;SDS011;5212;47.892;16.406;2023-11-21T08:35:16;14.73;;;6.70;;
10333;SDS011;5212;47.892;16.406;2023-11-21T08:37:42;7.77;;;4.00;;
10333;SDS011;5212;47.892;16.406;2023-11-21T08:40:09;5.07;;;2.03;;
10333;SDS011;5212;47.892;16.406;2023-11-21T08:42:39;3.77;;;2.10;;
10333;SDS011;5212;47.892;16.406;2023-11-21T08:45:06;4.13;;;1.90;;
10333;SDS011;5212;47.892;16.406;2023-11-21T08:47:34;4.27;;;1.90;;
10333;SDS011;5212;47.892;16.406;2023-11-21T08:50:01;2.73;;;1.50;;
10333;SDS011;5212;47.892;16.406;2023-11-21T08:52:27;4.27;;;1.53;;
10333;SDS011;5212;47.892;16.406;2023-11-21T08:54:54;2.20;;;1.30;;
10333;SDS011;5212;47.892;16.406;2023-11-21T08:57:22;5.07;;;1.47;;
10333;SDS011;5212;47.892;16.406;2023-11-21T08:59:48;2.90;;;1.37;;
10333;SDS011;5212;47.892;16.406;2023-11-21T09:02:14;7.07;;;2.90;;
10333;SDS011;5212;47.892;16.406;2023-11-21T09:04:40;11.17;;;4.40;;
10333;SDS011;5212;47.892;16.406;2023-11-21T09:07:06;10.60;;;3.43;;
10333;SDS011;5212;47.892;16.406;2023-11-21T09:09:32;4.63;;;2.30;;
10333;SDS011;5212;47.892;16.406;2023-11-21T09:11:58;6.37;;;2.53;;
10333;SDS011;5212;47.892;16.406;2023-11-21T09:14:26;7.30;;;2.00;;
10333;SDS011;5212;47.892;16.406;2023-11-21T09:16:52;9.10;;;2.57;;
10333;SDS011;5212;47.892;16.406;2023-11-21T09:19:18;5.70;;;1.80;;
10333;SDS011;5212;47.892;16.406;2023-11-21T09:21:44;6.33;;;1.87;;
10333;SDS011;5212;47.892;16.406;2023-11-21T09:24:10;5.67;;;2.30;;
10333;SDS011;5212;47.892;16.406;2023-11-21T09:26:36;6.30;;;2.17;;
10333;SDS011;5212;47.892;16.406;2023-11-21T09:29:03;5.53;;;1.90;;
10333;SDS011;5212;47.892;16.406;2023-11-21T09:31:29;4.90;;;2.10;;
10333;SDS011;5212;47.892;16.406;2023-11-21T09:33:56;7.73;;;2.90;;
10333;SDS011;5212;47.892;16.406;2023-11-21T09:36:22;5.47;;;2.03;;
10333;SDS011;5212;47.892;16.406;2023-11-21T09:38:52;3.47;;;2.20;;
10333;SDS011;5212;47.892;16.406;2023-11-21T09:41:21;4.77;;;1.90;;
10333;SDS011;5212;47.892;16.406;2023-11-21T09:43:57;3.47;;;1.40;;
10333;SDS011;5212;47.892;16.406;2023-11-21T09:46:24;3.80;;;0.90;;
10333;SDS011;5212;47.892;16.406;2023-11-21T09:48:53;1.67;;;1.00;;
10333;SDS011;5212;47.892;16.406;2023-11-21T09:51:21;2.77;;;0.90;;
10333;SDS011;5212;47.892;16.406;2023-11-21T09:53:49;4.17;;;1.13;;
10333;SDS011;5212;47.892;16.406;2023-11-21T09:56:17;3.27;;;1.40;;
10333;SDS011;5212;47.892;16.406;2023-11-21T09:58:50;3.67;;;1.23;;
10333;SDS011;5212;47.892;16.406;2023-11-21T10:01:17;1.00;;;0.80;;
10333;SDS011;5212;47.892;16.406;2023-11-21T10:03:44;3.97;;;1.10;;
10333;SDS011;5212;47.892;16.406;2023-11-21T10:06:11;1.83;;;1.17;;
10333;SDS011;5212;47.892;16.406;2023-11-21T10:08:39;1.70;;;1.20;;
10333;SDS011;5212;47.892;16.406;2023-11-21T10:11:05;1.13;;;0.80;;
10333;SDS011;5212;47.892;16.406;2023-11-21T10:13:32;2.13;;;0.90;;
10333;SDS011;5212;47.892;16.406;2023-11-21T10:15:59;2.30;;;0.80;;
10333;SDS011;5212;47.892;16.406;2023-11-21T10:18:30;2.70;;;0.90;;
10333;SDS011;5212;47.892;16.406;2023-11-21T10:20:59;2.20;;;0.90;;
10333;SDS011;5212;47.892;16.406;2023-11-21T10:23:26;1.93;;;0.80;;
10333;SDS011;5212;47.892;16.406;2023-11-21T10:25:53;2.77;;;1.10;;
10333;SDS011;5212;47.892;16.406;2023-11-21T10:28:20;1.17;;;0.80;;
10333;SDS011;5212;47.892;16.406;2023-11-21T10:30:46;1.57;;;1.07;;
10333;SDS011;5212;47.892;16.406;2023-11-21T10:33:12;1.40;;;0.90;;
10333;SDS011;5212;47.892;16.406;2023-11-21T10:35:38;4.47;;;1.10;;
10333;SDS011;5212;47.892;16.406;2023-11-21T10:38:05;1.60;;;0.87;;
10333;SDS011;5212;47.892;16.406;2023-11-21T10:40:34;3.10;;;1.10;;
10333;SDS011;5212;47.892;16.406;2023-11-21T10:43:05;1.90;;;1.03;;
10333;SDS011;5212;47.892;16.406;2023-11-21T10:45:32;2.07;;;0.90;;
10333;SDS011;5212;47.892;16.406;2023-11-21T10:47:58;2.10;;;1.10;;
10333;SDS011;5212;47.892;16.406;2023-11-21T10:50:24;1.60;;;1.10;;
10333;SDS011;5212;47.892;16.406;2023-11-21T10:52:51;2.80;;;1.00;;
10333;SDS011;5212;47.892;16.406;2023-11-21T10:55:17;2.23;;;1.00;;
10333;SDS011;5212;47.892;16.406;2023-11-21T10:57:44;6.63;;;1.13;;
10333;SDS011;5212;47.892;16.406;2023-11-21T11:00:13;2.03;;;1.07;;
10333;SDS011;5212;47.892;16.406;2023-11-21T11:02:41;2.30;;;1.00;;
10333;SDS011;5212;47.892;16.406;2023-11-21T11:05:07;1.03;;;0.80;;
10333;SDS011;5212;47.892;16.406;2023-11-21T11:07:36;2.03;;;0.80;;
10333;SDS011;5212;47.892;16.406;2023-11-21T11:10:04;2.27;;;1.00;;
10333;SDS011;5212;47.892;16.406;2023-11-21T11:12:33;1.70;;;1.10;;
10333;SDS011;5212;47.892;16.406;2023-11-21T11:15:01;1.33;;;0.70;;
10333;SDS011;5212;47.892;16.406;2023-11-21T11:17:28;2.40;;;1.47;;
10333;SDS011;5212;47.892;16.406;2023-11-21T11:19:54;1.00;;;0.60;;
10333;SDS011;5212;47.892;16.406;2023-11-21T11:22:24;0.77;;;0.60;;
10333;SDS011;5212;47.892;16.406;2023-11-21T11:25:03;1.03;;;0.67;;
10333;SDS011;5212;47.892;16.406;2023-11-21T11:27:40;2.70;;;0.57;;
10333;SDS011;5212;47.892;16.406;2023-11-21T11:30:16;0.93;;;0.70;;
10333;SDS011;5212;47.892;16.406;2023-11-21T11:32:50;1.20;;;0.60;;
10333;SDS011;5212;47.892;16.406;2023-11-21T11:35:23;1.40;;;0.50;;
10333;SDS011;5212;47.892;16.406;2023-11-21T11:37:51;1.53;;;0.50;;
10333;SDS011;5212;47.892;16.406;2023-11-21T11:40:18;1.33;;;0.50;;
10333;SDS011;5212;47.892;16.406;2023-11-21T11:42:55;0.83;;;0.53;;
10333;SDS011;5212;47.892;16.406;2023-11-21T11:45:23;1.90;;;0.63;;
10333;SDS011;5212;47.892;16.406;2023-11-21T11:47:56;0.87;;;0.60;;
10333;SDS011;5212;47.892;16.406;2023-11-21T11:50:22;1.33;;;0.57;;
10333;SDS011;5212;47.892;16.406;2023-11-21T11:52:50;1.87;;;0.60;;
10333;SDS011;5212;47.892;16.406;2023-11-21T11:55:18;0.40;;;0.40;;
10333;SDS011;5212;47.892;16.406;2023-11-21T11:57:45;0.90;;;0.50;;
10333;SDS011;5212;47.892;16.406;2023-11-21T12:00:16;1.03;;;0.43;;
10333;SDS011;5212;47.892;16.406;2023-11-21T12:05:13;0.80;;;0.60;;
10333;SDS011;5212;47.892;16.406;2023-11-21T12:07:43;0.60;;;0.50;;
10333;SDS011;5212;47.892;16.406;2023-11-21T12:10:11;0.77;;;0.60;;
10333;SDS011;5212;47.892;16.406;2023-11-21T12:12:42;0.73;;;0.60;;
10333;SDS011;5212;47.892;16.406;2023-11-21T12:15:09;1.27;;;0.60;;
10333;SDS011;5212;47.892;16.406;2023-11-21T12:17:35;0.90;;;0.50;;
10333;SDS011;5212;47.892;16.406;2023-11-21T12:20:02;0.83;;;0.60;;
10333;SDS011;5212;47.892;16.406;2023-11-21T12:22:29;1.30;;;0.60;;
10333;SDS011;5212;47.892;16.406;2023-11-21T12:24:56;0.70;;;0.50;;
10333;SDS011;5212;47.892;16.406;2023-11-21T12:27:22;1.90;;;0.60;;
10333;SDS011;5212;47.892;16.406;2023-11-21T12:29:48;0.60;;;0.60;;
10333;SDS011;5212;47.892;16.406;2023-11-21T12:32:14;0.70;;;0.50;;
10333;SDS011;5212;47.892;16.406;2023-11-21T12:34:43;0.67;;;0.53;;
10333;SDS011;5212;47.892;16.406;2023-11-21T12:37:10;2.03;;;0.70;;
10333;SDS011;5212;47.892;16.406;2023-11-21T12:39:36;0.57;;;0.50;;
10333;SDS011;5212;47.892;16.406;2023-11-21T12:42:02;0.83;;;0.57;;
10333;SDS011;5212;47.892;16.406;2023-11-21T12:44:29;1.20;;;0.67;;
10333;SDS011;5212;47.892;16.406;2023-11-21T12:46:55;1.47;;;0.70;;
10333;SDS011;5212;47.892;16.406;2023-11-21T12:49:21;1.20;;;0.70;;
10333;SDS011;5212;47.892;16.406;2023-11-21T12:51:47;0.83;;;0.60;;
10333;SDS011;5212;47.892;16.406;2023-11-21T12:54:14;1.10;;;0.83;;
10333;SDS011;5212;47.892;16.406;2023-11-21T12:56:40;1.57;;;0.70;;
10333;SDS011;5212;47.892;16.406;2023-11-21T12:59:06;1.20;;;0.70;;
10333;SDS011;5212;47.892;16.406;2023-11-21T13:01:38;0.70;;;0.63;;
10333;SDS011;5212;47.892;16.406;2023-11-21T13:04:07;1.00;;;0.67;;
10333;SDS011;5212;47.892;16.406;2023-11-21T13:06:36;3.23;;;0.63;;
10333;SDS011;5212;47.892;16.406;2023-11-21T13:09:06;0.83;;;0.57;;
10333;SDS011;5212;47.892;16.406;2023-11-21T13:11:36;2.03;;;0.60;;
10333;SDS011;5212;47.892;16.406;2023-11-21T13:14:02;0.97;;;0.70;;
10333;SDS011;5212;47.892;16.406;2023-11-21T13:16:28;1.97;;;0.70;;
10333;SDS011;5212;47.892;16.406;2023-11-21T13:18:55;1.50;;;0.80;;
10333;SDS011;5212;47.892;16.406;2023-11-21T13:21:21;0.97;;;0.70;;
10333;SDS011;5212;47.892;16.406;2023-11-21T13:23:47;0.97;;;0.73;;
10333;SDS011;5212;47.892;16.406;2023-11-21T13:26:16;0.93;;;0.70;;
10333;SDS011;5212;47.892;16.406;2023-11-21T13:28:43;0.80;;;0.70;;
10333;SDS011;5212;47.892;16.406;2023-11-21T13:31:11;1.37;;;0.70;;
10333;SDS011;5212;47.892;16.406;2023-11-21T13:33:46;0.70;;;0.60;;
10333;SDS011;5212;47.892;16.406;2023-11-21T13:36:16;1.33;;;0.60;;
10333;SDS011;5212;47.892;16.406;2023-11-21T13:38:47;1.07;;;0.60;;
10333;SDS011;5212;47.892;16.406;2023-11-21T13:41:14;0.77;;;0.60;;
10333;SDS011;5212;47.892;16.406;2023-11-21T13:43:40;1.00;;;0.60;;
10333;SDS011;5212;47.892;16.406;2023-11-21T13:46:09;0.97;;;0.80;;
10333;SDS011;5212;47.892;16.406;2023-11-21T13:48:40;0.90;;;0.70;;
10333;SDS011;5212;47.892;16.406;2023-11-21T13:51:08;0.60;;;0.50;;
10333;SDS011;5212;47.892;16.406;2023-11-21T13:53:42;2.33;;;0.70;;
10333;SDS011;5212;47.892;16.406;2023-11-21T13:56:08;0.97;;;0.60;;
10333;SDS011;5212;47.892;16.406;2023-11-21T13:58:34;2.53;;;0.80;;
10333;SDS011;5212;47.892;16.406;2023-11-21T14:01:10;1.00;;;0.70;;
10333;SDS011;5212;47.892;16.406;2023-11-21T14:03:54;1.47;;;0.97;;
10333;SDS011;5212;47.892;16.406;2023-11-21T14:06:25;1.60;;;0.87;;
10333;SDS011;5212;47.892;16.406;2023-11-21T14:08:59;2.40;;;0.80;;
10333;SDS011;5212;47.892;16.406;2023-11-21T14:11:30;1.87;;;0.93;;
10333;SDS011;5212;47.892;16.406;2023-11-21T14:13:56;3.70;;;0.80;;
10333;SDS011;5212;47.892;16.406;2023-11-21T14:16:25;0.90;;;0.70;;
10333;SDS011;5212;47.892;16.406;2023-11-21T14:18:51;1.83;;;1.03;;
10333;SDS011;5212;47.892;16.406;2023-11-21T14:21:20;2.50;;;1.10;;
10333;SDS011;5212;47.892;16.406;2023-11-21T14:23:47;0.90;;;0.80;;
10333;SDS011;5212;47.892;16.406;2023-11-21T14:26:13;0.90;;;0.80;;
10333;SDS011;5212;47.892;16.406;2023-11-21T14:28:41;1.10;;;0.77;;
10333;SDS011;5212;47.892;16.406;2023-11-21T14:31:07;1.10;;;0.90;;
10333;SDS011;5212;47.892;16.406;2023-11-21T14:33:38;5.83;;;0.77;;
10333;SDS011;5212;47.892;16.406;2023-11-21T14:36:05;2.93;;;0.90;;
10333;SDS011;5212;47.892;16.406;2023-11-21T14:38:33;1.70;;;1.10;;
10333;SDS011;5212;47.892;16.406;2023-11-21T14:40:59;1.57;;;1.10;;
10333;SDS011;5212;47.892;16.406;2023-11-21T14:43:25;0.83;;;0.77;;
10333;SDS011;5212;47.892;16.406;2023-11-21T14:45:54;1.50;;;0.93;;
10333;SDS011;5212;47.892;16.406;2023-11-21T14:48:22;1.50;;;1.00;;